sensor_id;sensor_type;location;lat;lon;timestamp;noise_LAeq;noise_LA_min;noise_LA_max;noise_LA01;noise_LA95
43787;Laerm;29409;49.306;8.500;2022-08-01T00:00:47;39.67;36.45;44.69;;
43787;Laerm;29409;49.306;8.500;2022-08-01T00:02:26;39.76;35.66;44.47;;
43787;Laerm;29409;49.306;8.500;2022-08-01T00:04:04;42.34;39.58;44.11;;
43787;Laerm;29409;49.306;8.500;2022-08-01T00:05:42;42.57;40.71;44.66;;
43787;Laerm;29409;49.306;8.500;2022-08-01T00:07:22;42.38;40.33;43.94;;
43787;Laerm;29409;49.306;8.500;2022-08-01T00:09:01;42.48;40.53;46.10;;
43787;Laerm;29409;49.306;8.500;2022-08-01T00:10:38;42.28;39.70;43.49;;
43787;Laerm;29409;49.306;8.500;2022-08-01T00:12:17;42.18;40.23;43.54;;
43787;Laerm;29409;49.306;8.500;2022-08-01T00:13:55;41.95;40.23;43.39;;
43787;Laerm;29409;49.306;8.500;2022-08-01T00:15:32;41.57;39.46;42.98;;
43787;Laerm;29409;49.306;8.500;2022-08-01T00:17:11;41.50;39.34;43.09;;
43787;Laerm;29409;49.306;8.500;2022-08-01T00:18:52;41.70;39.58;43.97;;
43787;Laerm;29409;49.306;8.500;2022-08-01T00:20:31;41.66;39.34;43.09;;
43787;Laerm;29409;49.306;8.500;2022-08-01T00:22:08;41.66;39.34;42.98;;
43787;Laerm;29409;49.306;8.500;2022-08-01T00:23:46;40.83;36.20;44.58;;
43787;Laerm;29409;49.306;8.500;2022-08-01T00:25:25;38.94;35.04;41.61;;
43787;Laerm;29409;49.306;8.500;2022-08-01T00:27:03;38.95;35.66;41.30;;
43787;Laerm;29409;49.306;8.500;2022-08-01T00:28:41;39.39;34.31;41.53;;
43787;Laerm;29409;49.306;8.500;2022-08-01T00:30:19;39.86;33.90;43.39;;
43787;Laerm;29409;49.306;8.500;2022-08-01T00:31:57;39.76;35.04;43.72;;
43787;Laerm;29409;49.306;8.500;2022-08-01T00:33:35;39.36;34.69;42.03;;
43787;Laerm;29409;49.306;8.500;2022-08-01T00:35:13;39.69;35.66;46.38;;
43787;Laerm;29409;49.306;8.500;2022-08-01T00:36:52;39.06;35.66;41.96;;
43787;Laerm;29409;49.306;8.500;2022-08-01T00:38:31;39.14;34.69;42.65;;
43787;Laerm;29409;49.306;8.500;2022-08-01T00:40:09;39.66;35.66;42.35;;
43787;Laerm;29409;49.306;8.500;2022-08-01T00:41:47;39.86;35.01;42.71;;
43787;Laerm;29409;49.306;8.500;2022-08-01T00:43:26;39.49;34.31;43.54;;
43787;Laerm;29409;49.306;8.500;2022-08-01T00:45:04;39.37;36.10;42.88;;
43787;Laerm;29409;49.306;8.500;2022-08-01T00:46:43;38.71;32.93;41.96;;
43787;Laerm;29409;49.306;8.500;2022-08-01T00:48:21;38.65;33.44;41.22;;
43787;Laerm;29409;49.306;8.500;2022-08-01T00:49:58;38.68;34.69;41.14;;
43787;Laerm;29409;49.306;8.500;2022-08-01T00:51:36;38.79;33.44;41.22;;
43787;Laerm;29409;49.306;8.500;2022-08-01T00:53:16;41.02;36.69;44.87;;
43787;Laerm;29409;49.306;8.500;2022-08-01T00:54:54;39.17;34.31;42.59;;
43787;Laerm;29409;49.306;8.500;2022-08-01T00:56:31;39.24;35.66;42.16;;
43787;Laerm;29409;49.306;8.500;2022-08-01T00:58:09;38.63;34.31;40.98;;
43787;Laerm;29409;49.306;8.500;2022-08-01T00:59:48;39.19;34.31;42.88;;
43787;Laerm;29409;49.306;8.500;2022-08-01T01:01:25;39.51;35.59;42.93;;
43787;Laerm;29409;49.306;8.500;2022-08-01T01:03:04;38.95;35.04;41.68;;
43787;Laerm;29409;49.306;8.500;2022-08-01T01:04:42;38.84;34.69;43.19;;
43787;Laerm;29409;49.306;8.500;2022-08-01T01:06:25;39.70;35.86;42.93;;
43787;Laerm;29409;49.306;8.500;2022-08-01T01:08:08;39.41;35.66;41.75;;
43787;Laerm;29409;49.306;8.500;2022-08-01T01:09:56;39.04;35.04;41.61;;
43787;Laerm;29409;49.306;8.500;2022-08-01T01:11:44;39.08;34.69;43.19;;
43787;Laerm;29409;49.306;8.500;2022-08-01T01:13:30;39.37;35.04;42.71;;
43787;Laerm;29409;49.306;8.500;2022-08-01T01:15:26;43.49;35.36;59.00;;
43787;Laerm;29409;49.306;8.500;2022-08-01T01:17:06;40.29;35.94;43.90;;
43787;Laerm;29409;49.306;8.500;2022-08-01T01:18:53;39.34;34.31;42.93;;
43787;Laerm;29409;49.306;8.500;2022-08-01T01:20:35;38.87;34.69;56.60;;
43787;Laerm;29409;49.306;8.500;2022-08-01T01:22:21;39.09;33.90;57.33;;
43787;Laerm;29409;49.306;8.500;2022-08-01T01:25:43;38.61;34.69;40.98;;
43787;Laerm;29409;49.306;8.500;2022-08-01T01:27:28;38.97;34.69;41.61;;
43787;Laerm;29409;49.306;8.500;2022-08-01T01:29:33;38.69;34.31;42.71;;
43787;Laerm;29409;49.306;8.500;2022-08-01T01:31:10;38.71;33.90;42.22;;
43787;Laerm;29409;49.306;8.500;2022-08-01T01:32:49;38.59;34.69;41.46;;
43787;Laerm;29409;49.306;8.500;2022-08-01T01:34:29;38.57;33.90;40.89;;
43787;Laerm;29409;49.306;8.500;2022-08-01T01:36:09;38.94;34.31;42.16;;
43787;Laerm;29409;49.306;8.500;2022-08-01T01:37:49;38.85;34.31;43.04;;
43787;Laerm;29409;49.306;8.500;2022-08-01T01:39:28;39.23;33.97;42.47;;
43787;Laerm;29409;49.306;8.500;2022-08-01T01:41:07;38.52;29.92;41.46;;
43787;Laerm;29409;49.306;8.500;2022-08-01T01:42:46;40.05;32.93;45.14;;
43787;Laerm;29409;49.306;8.500;2022-08-01T01:44:25;38.96;33.44;41.53;;
43787;Laerm;29409;49.306;8.500;2022-08-01T01:46:04;41.10;33.90;56.13;;
43787;Laerm;29409;49.306;8.500;2022-08-01T01:47:42;38.96;34.69;44.94;;
43787;Laerm;29409;49.306;8.500;2022-08-01T01:49:25;42.00;35.04;58.15;;
43787;Laerm;29409;49.306;8.500;2022-08-01T01:51:04;38.55;32.35;41.30;;
43787;Laerm;29409;49.306;8.500;2022-08-01T01:52:42;38.33;33.90;45.45;;
43787;Laerm;29409;49.306;8.500;2022-08-01T01:54:25;38.72;33.90;41.30;;
43787;Laerm;29409;49.306;8.500;2022-08-01T01:56:06;38.58;33.90;41.33;;
43787;Laerm;29409;49.306;8.500;2022-08-01T01:57:44;38.59;33.44;41.38;;
43787;Laerm;29409;49.306;8.500;2022-08-01T01:59:27;38.58;34.69;41.06;;
43787;Laerm;29409;49.306;8.500;2022-08-01T02:01:07;38.64;33.44;40.98;;
43787;Laerm;29409;49.306;8.500;2022-08-01T02:02:46;38.62;34.31;41.53;;
43787;Laerm;29409;49.306;8.500;2022-08-01T02:04:25;38.69;35.04;43.49;;
43787;Laerm;29409;49.306;8.500;2022-08-01T02:06:04;38.36;31.68;41.82;;
43787;Laerm;29409;49.306;8.500;2022-08-01T02:07:43;38.29;33.90;41.30;;
43787;Laerm;29409;49.306;8.500;2022-08-01T02:09:22;38.45;33.90;40.80;;
43787;Laerm;29409;49.306;8.500;2022-08-01T02:11:00;38.32;33.44;41.14;;
43787;Laerm;29409;49.306;8.500;2022-08-01T02:12:57;38.42;33.90;41.06;;
43787;Laerm;29409;49.306;8.500;2022-08-01T02:14:35;38.57;34.31;43.09;;
43787;Laerm;29409;49.306;8.500;2022-08-01T02:16:15;38.65;34.69;41.33;;
43787;Laerm;29409;49.306;8.500;2022-08-01T02:17:54;38.22;32.93;41.38;;
43787;Laerm;29409;49.306;8.500;2022-08-01T02:19:34;38.69;33.90;43.19;;
43787;Laerm;29409;49.306;8.500;2022-08-01T02:21:12;39.54;34.31;45.01;;
43787;Laerm;29409;49.306;8.500;2022-08-01T02:24:55;43.38;34.31;76.80;;
43787;Laerm;29409;49.306;8.500;2022-08-01T02:26:38;38.73;33.44;41.82;;
43787;Laerm;29409;49.306;8.500;2022-08-01T02:28:20;39.06;33.90;43.68;;
43787;Laerm;29409;49.306;8.500;2022-08-01T02:30:05;39.07;34.31;41.82;;
43787;Laerm;29409;49.306;8.500;2022-08-01T02:31:45;39.11;33.44;44.62;;
43787;Laerm;29409;49.306;8.500;2022-08-01T02:33:25;38.86;34.31;41.46;;
43787;Laerm;29409;49.306;8.500;2022-08-01T02:35:13;38.48;33.44;41.06;;
43787;Laerm;29409;49.306;8.500;2022-08-01T02:36:55;38.55;33.90;42.76;;
43787;Laerm;29409;49.306;8.500;2022-08-01T02:38:36;39.34;35.66;43.14;;
43787;Laerm;29409;49.306;8.500;2022-08-01T02:40:16;39.63;36.20;42.88;;
43787;Laerm;29409;49.306;8.500;2022-08-01T02:41:57;39.04;34.69;41.61;;
43787;Laerm;29409;49.306;8.500;2022-08-01T02:43:37;39.36;33.44;41.75;;
43787;Laerm;29409;49.306;8.500;2022-08-01T02:45:20;39.53;35.36;43.24;;
43787;Laerm;29409;49.306;8.500;2022-08-01T02:47:00;40.05;36.45;43.14;;
43787;Laerm;29409;49.306;8.500;2022-08-01T02:48:40;39.28;35.94;41.82;;
43787;Laerm;29409;49.306;8.500;2022-08-01T02:50:19;39.01;34.69;41.46;;
43787;Laerm;29409;49.306;8.500;2022-08-01T02:52:00;39.12;35.36;41.53;;
43787;Laerm;29409;49.306;8.500;2022-08-01T02:53:39;39.54;34.34;44.15;;
43787;Laerm;29409;49.306;8.500;2022-08-01T02:55:19;39.62;36.20;43.44;;
43787;Laerm;29409;49.306;8.500;2022-08-01T02:56:58;40.30;36.91;42.65;;
43787;Laerm;29409;49.306;8.500;2022-08-01T02:58:36;41.12;35.94;43.90;;
43787;Laerm;29409;49.306;8.500;2022-08-01T03:00:15;42.69;40.03;44.23;;
43787;Laerm;29409;49.306;8.500;2022-08-01T03:01:54;42.17;40.03;44.35;;
43787;Laerm;29409;49.306;8.500;2022-08-01T03:03:34;45.66;40.62;62.81;;
43787;Laerm;29409;49.306;8.500;2022-08-01T03:05:13;45.02;40.80;60.94;;
43787;Laerm;29409;49.306;8.500;2022-08-01T03:06:53;42.73;40.71;44.47;;
43787;Laerm;29409;49.306;8.500;2022-08-01T03:08:32;42.95;40.71;45.91;;
43787;Laerm;29409;49.306;8.500;2022-08-01T03:10:11;42.50;40.63;44.07;;
43787;Laerm;29409;49.306;8.500;2022-08-01T03:11:50;44.31;39.34;55.27;;
43787;Laerm;29409;49.306;8.500;2022-08-01T03:13:30;42.34;38.81;45.11;;
43787;Laerm;29409;49.306;8.500;2022-08-01T03:15:09;40.77;36.45;43.94;;
43787;Laerm;29409;49.306;8.500;2022-08-01T03:16:48;40.89;37.12;45.07;;
43787;Laerm;29409;49.306;8.500;2022-08-01T03:18:26;41.22;38.05;45.72;;
43787;Laerm;29409;49.306;8.500;2022-08-01T03:20:06;41.81;37.32;49.65;;
43787;Laerm;29409;49.306;8.500;2022-08-01T03:21:46;44.01;39.34;51.42;;
43787;Laerm;29409;49.306;8.500;2022-08-01T03:23:25;44.01;38.52;55.18;;
43787;Laerm;29409;49.306;8.500;2022-08-01T03:25:05;41.25;38.05;45.20;;
43787;Laerm;29409;49.306;8.500;2022-08-01T03:26:44;42.97;38.21;53.11;;
43787;Laerm;29409;49.306;8.500;2022-08-01T03:28:23;40.84;37.70;43.29;;
43787;Laerm;29409;49.306;8.500;2022-08-01T03:30:03;42.23;37.52;50.46;;
43787;Laerm;29409;49.306;8.500;2022-08-01T03:31:43;40.84;37.70;46.73;;
43787;Laerm;29409;49.306;8.500;2022-08-01T03:33:22;40.28;37.32;44.39;;
43787;Laerm;29409;49.306;8.500;2022-08-01T03:35:01;40.59;36.69;45.07;;
43787;Laerm;29409;49.306;8.500;2022-08-01T03:36:46;42.19;38.37;45.27;;
43787;Laerm;29409;49.306;8.500;2022-08-01T03:38:25;41.25;38.02;45.17;;
43787;Laerm;29409;49.306;8.500;2022-08-01T03:40:05;45.56;37.88;58.33;;
43787;Laerm;29409;49.306;8.500;2022-08-01T03:41:48;41.71;38.21;46.10;;
43787;Laerm;29409;49.306;8.500;2022-08-01T03:45:26;40.71;36.20;44.56;;
43787;Laerm;29409;49.306;8.500;2022-08-01T03:47:08;43.94;38.52;52.39;;
43787;Laerm;29409;49.306;8.500;2022-08-01T03:48:49;41.63;37.70;46.28;;
43787;Laerm;29409;49.306;8.500;2022-08-01T03:50:28;40.45;37.70;43.86;;
43787;Laerm;29409;49.306;8.500;2022-08-01T03:52:08;41.75;37.88;51.24;;
43787;Laerm;29409;49.306;8.500;2022-08-01T03:53:47;41.08;37.88;46.48;;
43787;Laerm;29409;49.306;8.500;2022-08-01T03:55:26;40.43;36.69;46.55;;
43787;Laerm;29409;49.306;8.500;2022-08-01T03:57:05;40.98;36.91;46.52;;
43787;Laerm;29409;49.306;8.500;2022-08-01T03:58:43;43.91;38.37;54.81;;
43787;Laerm;29409;49.306;8.500;2022-08-01T04:00:22;41.79;36.69;55.12;;
43787;Laerm;29409;49.306;8.500;2022-08-01T04:02:01;48.21;38.95;65.29;;
43787;Laerm;29409;49.306;8.500;2022-08-01T04:03:39;44.04;39.58;60.16;;
43787;Laerm;29409;49.306;8.500;2022-08-01T04:05:18;44.96;37.70;74.90;;
43787;Laerm;29409;49.306;8.500;2022-08-01T04:06:56;40.80;38.05;44.03;;
43787;Laerm;29409;49.306;8.500;2022-08-01T04:08:34;40.40;36.91;47.61;;
43787;Laerm;29409;49.306;8.500;2022-08-01T04:10:13;40.36;36.91;45.80;;
43787;Laerm;29409;49.306;8.500;2022-08-01T04:11:51;40.74;37.12;44.94;;
43787;Laerm;29409;49.306;8.500;2022-08-01T04:13:30;40.42;36.91;45.11;;
43787;Laerm;29409;49.306;8.500;2022-08-01T04:15:08;42.82;37.88;53.08;;
43787;Laerm;29409;49.306;8.500;2022-08-01T04:16:46;41.02;37.32;49.18;;
43787;Laerm;29409;49.306;8.500;2022-08-01T04:18:24;42.90;37.70;54.04;;
43787;Laerm;29409;49.306;8.500;2022-08-01T04:20:02;41.30;37.70;47.02;;
43787;Laerm;29409;49.306;8.500;2022-08-01T04:21:40;42.80;38.05;51.06;;
43787;Laerm;29409;49.306;8.500;2022-08-01T04:23:20;41.35;38.05;44.92;;
43787;Laerm;29409;49.306;8.500;2022-08-01T04:25:00;41.47;36.69;48.88;;
43787;Laerm;29409;49.306;8.500;2022-08-01T04:26:41;41.13;37.52;46.48;;
43787;Laerm;29409;49.306;8.500;2022-08-01T04:28:22;44.05;38.67;52.35;;
43787;Laerm;29409;49.306;8.500;2022-08-01T04:30:01;41.78;38.21;50.01;;
43787;Laerm;29409;49.306;8.500;2022-08-01T04:31:40;41.71;38.21;45.69;;
43787;Laerm;29409;49.306;8.500;2022-08-01T04:33:19;41.44;38.37;46.23;;
43787;Laerm;29409;49.306;8.500;2022-08-01T04:34:58;44.35;38.05;58.62;;
43787;Laerm;29409;49.306;8.500;2022-08-01T04:36:37;41.56;38.05;47.46;;
43787;Laerm;29409;49.306;8.500;2022-08-01T04:38:21;42.65;39.08;46.89;;
43787;Laerm;29409;49.306;8.500;2022-08-01T04:39:59;42.86;39.99;47.36;;
43787;Laerm;29409;49.306;8.500;2022-08-01T04:41:38;46.07;39.21;62.72;;
43787;Laerm;29409;49.306;8.500;2022-08-01T04:43:17;42.38;39.68;46.35;;
43787;Laerm;29409;49.306;8.500;2022-08-01T04:44:56;44.09;40.13;59.05;;
43787;Laerm;29409;49.306;8.500;2022-08-01T04:46:35;42.19;39.21;47.81;;
43787;Laerm;29409;49.306;8.500;2022-08-01T04:48:16;42.40;39.70;50.02;;
43787;Laerm;29409;49.306;8.500;2022-08-01T04:49:59;42.97;40.13;48.46;;
43787;Laerm;29409;49.306;8.500;2022-08-01T04:51:48;42.18;39.46;46.02;;
43787;Laerm;29409;49.306;8.500;2022-08-01T04:53:26;41.71;38.37;44.90;;
43787;Laerm;29409;49.306;8.500;2022-08-01T04:55:05;42.14;39.08;49.04;;
43787;Laerm;29409;49.306;8.500;2022-08-01T04:56:46;41.68;39.21;46.62;;
43787;Laerm;29409;49.306;8.500;2022-08-01T04:58:24;41.70;38.52;49.92;;
43787;Laerm;29409;49.306;8.500;2022-08-01T05:00:02;42.40;39.08;56.57;;
43787;Laerm;29409;49.306;8.500;2022-08-01T05:01:42;42.55;39.08;51.33;;
43787;Laerm;29409;49.306;8.500;2022-08-01T05:03:20;42.08;39.21;48.67;;
43787;Laerm;29409;49.306;8.500;2022-08-01T05:04:57;42.18;38.52;45.48;;
43787;Laerm;29409;49.306;8.500;2022-08-01T05:06:36;44.33;39.58;52.45;;
43787;Laerm;29409;49.306;8.500;2022-08-01T05:08:14;41.41;38.05;50.50;;
43787;Laerm;29409;49.306;8.500;2022-08-01T05:09:53;41.26;38.21;48.83;;
43787;Laerm;29409;49.306;8.500;2022-08-01T05:11:31;41.82;37.32;45.69;;
43787;Laerm;29409;49.306;8.500;2022-08-01T05:13:10;41.58;38.21;58.46;;
43787;Laerm;29409;49.306;8.500;2022-08-01T05:14:48;43.23;38.37;56.88;;
43787;Laerm;29409;49.306;8.500;2022-08-01T05:16:28;41.95;38.95;46.20;;
43787;Laerm;29409;49.306;8.500;2022-08-01T05:18:06;43.22;39.81;55.73;;
43787;Laerm;29409;49.306;8.500;2022-08-01T05:19:44;42.32;39.21;46.48;;
43787;Laerm;29409;49.306;8.500;2022-08-01T05:21:23;46.45;39.21;57.12;;
43787;Laerm;29409;49.306;8.500;2022-08-01T05:23:01;45.13;39.58;65.99;;
43787;Laerm;29409;49.306;8.500;2022-08-01T05:24:40;47.47;39.08;66.21;;
43787;Laerm;29409;49.306;8.500;2022-08-01T05:26:18;42.74;40.13;50.22;;
43787;Laerm;29409;49.306;8.500;2022-08-01T05:27:56;42.00;38.95;50.87;;
43787;Laerm;29409;49.306;8.500;2022-08-01T05:29:34;41.57;38.05;55.13;;
43787;Laerm;29409;49.306;8.500;2022-08-01T05:31:12;45.08;38.52;58.81;;
43787;Laerm;29409;49.306;8.500;2022-08-01T05:32:50;42.89;38.52;51.88;;
43787;Laerm;29409;49.306;8.500;2022-08-01T05:34:28;43.00;38.37;52.20;;
43787;Laerm;29409;49.306;8.500;2022-08-01T05:36:06;42.06;38.21;54.91;;
43787;Laerm;29409;49.306;8.500;2022-08-01T05:37:44;42.82;39.08;64.16;;
43787;Laerm;29409;49.306;8.500;2022-08-01T05:39:22;41.84;37.88;50.83;;
43787;Laerm;29409;49.306;8.500;2022-08-01T05:41:01;43.63;38.52;56.33;;
43787;Laerm;29409;49.306;8.500;2022-08-01T05:42:39;41.25;36.20;45.66;;
43787;Laerm;29409;49.306;8.500;2022-08-01T05:44:17;41.37;37.52;48.05;;
43787;Laerm;29409;49.306;8.500;2022-08-01T05:45:57;42.98;39.58;54.54;;
43787;Laerm;29409;49.306;8.500;2022-08-01T05:47:38;46.20;39.58;59.70;;
43787;Laerm;29409;49.306;8.500;2022-08-01T05:49:15;43.00;38.99;53.59;;
43787;Laerm;29409;49.306;8.500;2022-08-01T05:50:55;44.32;38.21;56.53;;
43787;Laerm;29409;49.306;8.500;2022-08-01T05:52:33;42.85;38.21;54.62;;
43787;Laerm;29409;49.306;8.500;2022-08-01T05:54:11;41.94;38.05;45.97;;
43787;Laerm;29409;49.306;8.500;2022-08-01T05:55:50;42.06;37.70;49.84;;
43787;Laerm;29409;49.306;8.500;2022-08-01T05:57:30;42.73;39.34;50.38;;
43787;Laerm;29409;49.306;8.500;2022-08-01T05:59:08;42.76;37.88;55.36;;
43787;Laerm;29409;49.306;8.500;2022-08-01T06:00:46;46.75;38.05;60.78;;
43787;Laerm;29409;49.306;8.500;2022-08-01T06:02:25;47.35;39.08;63.60;;
43787;Laerm;29409;49.306;8.500;2022-08-01T06:04:05;41.40;37.32;47.68;;
43787;Laerm;29409;49.306;8.500;2022-08-01T06:05:45;41.11;36.69;46.59;;
43787;Laerm;29409;49.306;8.500;2022-08-01T06:07:23;46.16;38.32;58.53;;
43787;Laerm;29409;49.306;8.500;2022-08-01T06:09:00;40.96;37.70;48.29;;
43787;Laerm;29409;49.306;8.500;2022-08-01T06:10:38;40.99;36.91;48.96;;
43787;Laerm;29409;49.306;8.500;2022-08-01T06:12:16;42.44;36.69;51.33;;
43787;Laerm;29409;49.306;8.500;2022-08-01T06:13:54;45.46;36.91;62.13;;
43787;Laerm;29409;49.306;8.500;2022-08-01T06:15:33;40.48;36.69;44.62;;
43787;Laerm;29409;49.306;8.500;2022-08-01T06:17:11;41.57;37.12;49.47;;
43787;Laerm;29409;49.306;8.500;2022-08-01T06:18:49;42.62;38.05;49.74;;
43787;Laerm;29409;49.306;8.500;2022-08-01T06:20:27;43.23;37.70;51.56;;
43787;Laerm;29409;49.306;8.500;2022-08-01T06:22:05;43.41;36.69;70.48;;
43787;Laerm;29409;49.306;8.500;2022-08-01T06:23:43;40.30;36.10;44.80;;
43787;Laerm;29409;49.306;8.500;2022-08-01T06:25:22;42.11;36.69;55.75;;
43787;Laerm;29409;49.306;8.500;2022-08-01T06:27:01;42.75;36.20;54.91;;
43787;Laerm;29409;49.306;8.500;2022-08-01T06:28:41;40.91;36.91;44.35;;
43787;Laerm;29409;49.306;8.500;2022-08-01T06:30:19;46.44;37.70;63.63;;
43787;Laerm;29409;49.306;8.500;2022-08-01T06:31:56;41.20;36.69;46.64;;
43787;Laerm;29409;49.306;8.500;2022-08-01T06:33:34;41.06;37.32;45.36;;
43787;Laerm;29409;49.306;8.500;2022-08-01T06:35:14;45.11;37.12;62.86;;
43787;Laerm;29409;49.306;8.500;2022-08-01T06:36:52;43.23;38.02;49.30;;
43787;Laerm;29409;49.306;8.500;2022-08-01T06:38:30;41.70;37.32;47.22;;
43787;Laerm;29409;49.306;8.500;2022-08-01T06:40:09;42.55;37.32;52.06;;
43787;Laerm;29409;49.306;8.500;2022-08-01T06:41:49;43.45;38.05;54.41;;
43787;Laerm;29409;49.306;8.500;2022-08-01T06:43:28;42.93;38.05;51.10;;
43787;Laerm;29409;49.306;8.500;2022-08-01T06:45:07;44.47;38.05;66.45;;
43787;Laerm;29409;49.306;8.500;2022-08-01T06:46:46;43.85;36.69;63.52;;
43787;Laerm;29409;49.306;8.500;2022-08-01T06:48:24;45.56;36.45;58.19;;
43787;Laerm;29409;49.306;8.500;2022-08-01T06:50:04;44.59;38.95;57.34;;
43787;Laerm;29409;49.306;8.500;2022-08-01T06:51:42;46.90;38.67;60.22;;
43787;Laerm;29409;49.306;8.500;2022-08-01T06:53:20;42.98;38.37;50.37;;
43787;Laerm;29409;49.306;8.500;2022-08-01T06:54:58;45.20;38.60;56.94;;
43787;Laerm;29409;49.306;8.500;2022-08-01T06:56:36;42.50;37.32;53.76;;
43787;Laerm;29409;49.306;8.500;2022-08-01T06:58:15;43.24;37.12;67.61;;
43787;Laerm;29409;49.306;8.500;2022-08-01T06:59:53;46.82;38.21;63.72;;
43787;Laerm;29409;49.306;8.500;2022-08-01T07:01:31;46.30;36.91;70.22;;
43787;Laerm;29409;49.306;8.500;2022-08-01T07:03:09;42.79;36.91;52.08;;
43787;Laerm;29409;49.306;8.500;2022-08-01T07:04:46;42.71;35.36;62.18;;
43787;Laerm;29409;49.306;8.500;2022-08-01T07:06:24;44.59;36.91;74.97;;
43787;Laerm;29409;49.306;8.500;2022-08-01T07:08:03;44.57;36.91;58.71;;
43787;Laerm;29409;49.306;8.500;2022-08-01T07:09:42;42.97;37.32;52.23;;
43787;Laerm;29409;49.306;8.500;2022-08-01T07:11:20;43.45;38.37;58.31;;
43787;Laerm;29409;49.306;8.500;2022-08-01T07:12:58;47.55;42.59;57.74;;
43787;Laerm;29409;49.306;8.500;2022-08-01T07:14:36;49.00;40.43;75.75;;
43787;Laerm;29409;49.306;8.500;2022-08-01T07:16:14;50.27;39.81;66.68;;
43787;Laerm;29409;49.306;8.500;2022-08-01T07:17:53;42.48;38.67;52.30;;
43787;Laerm;29409;49.306;8.500;2022-08-01T07:19:31;49.45;38.52;61.41;;
43787;Laerm;29409;49.306;8.500;2022-08-01T07:21:09;42.09;37.70;47.86;;
43787;Laerm;29409;49.306;8.500;2022-08-01T07:22:47;45.88;39.92;76.99;;
43787;Laerm;29409;49.306;8.500;2022-08-01T07:24:26;47.85;40.03;60.14;;
43787;Laerm;29409;49.306;8.500;2022-08-01T07:26:06;46.32;40.62;57.39;;
43787;Laerm;29409;49.306;8.500;2022-08-01T07:27:44;43.81;39.92;55.92;;
43787;Laerm;29409;49.306;8.500;2022-08-01T07:29:23;44.65;38.67;75.17;;
43787;Laerm;29409;49.306;8.500;2022-08-01T07:31:01;47.18;37.32;75.79;;
43787;Laerm;29409;49.306;8.500;2022-08-01T07:32:39;43.27;39.46;53.58;;
43787;Laerm;29409;49.306;8.500;2022-08-01T07:34:18;45.00;39.58;69.03;;
43787;Laerm;29409;49.306;8.500;2022-08-01T07:35:56;42.41;37.88;60.00;;
43787;Laerm;29409;49.306;8.500;2022-08-01T07:37:34;44.96;38.67;62.93;;
43787;Laerm;29409;49.306;8.500;2022-08-01T07:39:12;45.92;40.03;64.50;;
43787;Laerm;29409;49.306;8.500;2022-08-01T07:40:50;48.20;38.18;65.27;;
43787;Laerm;29409;49.306;8.500;2022-08-01T07:42:28;43.51;35.04;56.01;;
43787;Laerm;29409;49.306;8.500;2022-08-01T07:44:06;44.17;38.81;57.27;;
43787;Laerm;29409;49.306;8.500;2022-08-01T07:45:44;44.51;37.88;60.75;;
43787;Laerm;29409;49.306;8.500;2022-08-01T07:47:23;46.00;35.94;62.72;;
43787;Laerm;29409;49.306;8.500;2022-08-01T07:49:02;42.80;38.67;51.87;;
43787;Laerm;29409;49.306;8.500;2022-08-01T07:50:39;42.35;37.32;48.29;;
43787;Laerm;29409;49.306;8.500;2022-08-01T07:52:17;43.74;36.91;62.54;;
43787;Laerm;29409;49.306;8.500;2022-08-01T07:53:56;47.10;38.67;72.42;;
43787;Laerm;29409;49.306;8.500;2022-08-01T07:55:34;40.93;36.45;57.83;;
43787;Laerm;29409;49.306;8.500;2022-08-01T07:57:12;53.06;39.46;67.24;;
43787;Laerm;29409;49.306;8.500;2022-08-01T07:58:50;42.66;38.37;50.10;;
43787;Laerm;29409;49.306;8.500;2022-08-01T08:00:28;42.24;38.05;58.51;;
43787;Laerm;29409;49.306;8.500;2022-08-01T08:02:08;43.43;38.67;65.74;;
43787;Laerm;29409;49.306;8.500;2022-08-01T08:03:46;42.62;37.32;53.77;;
43787;Laerm;29409;49.306;8.500;2022-08-01T08:05:25;41.02;36.45;47.61;;
43787;Laerm;29409;49.306;8.500;2022-08-01T08:07:03;42.49;37.87;51.49;;
43787;Laerm;29409;49.306;8.500;2022-08-01T08:08:41;43.04;37.70;50.07;;
43787;Laerm;29409;49.306;8.500;2022-08-01T08:10:19;41.13;35.94;59.32;;
43787;Laerm;29409;49.306;8.500;2022-08-01T08:11:56;43.20;35.94;58.51;;
43787;Laerm;29409;49.306;8.500;2022-08-01T08:13:36;41.24;35.66;47.70;;
43787;Laerm;29409;49.306;8.500;2022-08-01T08:15:14;42.24;37.12;48.67;;
43787;Laerm;29409;49.306;8.500;2022-08-01T08:16:52;40.89;36.69;47.81;;
43787;Laerm;29409;49.306;8.500;2022-08-01T08:18:30;41.85;37.12;49.30;;
43787;Laerm;29409;49.306;8.500;2022-08-01T08:20:08;45.83;38.21;61.71;;
43787;Laerm;29409;49.306;8.500;2022-08-01T08:21:49;42.10;38.21;57.55;;
43787;Laerm;29409;49.306;8.500;2022-08-01T08:23:29;42.33;33.90;49.96;;
43787;Laerm;29409;49.306;8.500;2022-08-01T08:25:25;45.07;37.12;58.82;;
43787;Laerm;29409;49.306;8.500;2022-08-01T08:27:03;41.82;35.36;49.18;;
43787;Laerm;29409;49.306;8.500;2022-08-01T08:28:41;42.26;35.94;54.75;;
43787;Laerm;29409;49.306;8.500;2022-08-01T08:30:20;40.83;37.12;48.96;;
43787;Laerm;29409;49.306;8.500;2022-08-01T08:31:59;43.22;37.70;51.90;;
43787;Laerm;29409;49.306;8.500;2022-08-01T08:33:37;44.43;35.94;60.74;;
43787;Laerm;29409;49.306;8.500;2022-08-01T08:35:16;41.84;36.45;46.62;;
43787;Laerm;29409;49.306;8.500;2022-08-01T08:36:55;40.83;36.69;44.90;;
43787;Laerm;29409;49.306;8.500;2022-08-01T08:38:33;41.56;37.32;46.28;;
43787;Laerm;29409;49.306;8.500;2022-08-01T08:40:11;44.03;39.21;51.97;;
43787;Laerm;29409;49.306;8.500;2022-08-01T08:41:50;60.40;42.82;80.76;;
43787;Laerm;29409;49.306;8.500;2022-08-01T08:43:28;57.67;39.46;77.68;;
43787;Laerm;29409;49.306;8.500;2022-08-01T08:45:06;42.65;37.52;53.69;;
43787;Laerm;29409;49.306;8.500;2022-08-01T08:46:45;41.97;36.20;49.82;;
43787;Laerm;29409;49.306;8.500;2022-08-01T08:48:25;41.90;36.91;46.55;;
43787;Laerm;29409;49.306;8.500;2022-08-01T08:50:04;41.21;35.66;50.55;;
43787;Laerm;29409;49.306;8.500;2022-08-01T08:51:43;39.75;34.69;44.47;;
43787;Laerm;29409;49.306;8.500;2022-08-01T08:53:22;41.61;36.20;47.44;;
43787;Laerm;29409;49.306;8.500;2022-08-01T08:55:00;41.31;35.66;53.10;;
43787;Laerm;29409;49.306;8.500;2022-08-01T08:56:38;47.89;36.69;76.99;;
43787;Laerm;29409;49.306;8.500;2022-08-01T08:58:17;45.15;35.36;71.06;;
43787;Laerm;29409;49.306;8.500;2022-08-01T08:59:55;41.16;36.20;63.47;;
43787;Laerm;29409;49.306;8.500;2022-08-01T09:01:34;45.54;36.45;72.93;;
43787;Laerm;29409;49.306;8.500;2022-08-01T09:03:13;54.28;37.52;68.05;;
43787;Laerm;29409;49.306;8.500;2022-08-01T09:04:52;50.05;38.37;73.47;;
43787;Laerm;29409;49.306;8.500;2022-08-01T09:06:30;43.99;36.69;62.63;;
43787;Laerm;29409;49.306;8.500;2022-08-01T09:08:12;41.58;36.69;46.10;;
43787;Laerm;29409;49.306;8.500;2022-08-01T09:09:50;41.55;34.31;51.29;;
43787;Laerm;29409;49.306;8.500;2022-08-01T09:11:29;43.24;36.45;56.01;;
43787;Laerm;29409;49.306;8.500;2022-08-01T09:14:47;41.92;36.45;52.56;;
43787;Laerm;29409;49.306;8.500;2022-08-01T09:16:25;40.87;34.31;49.41;;
43787;Laerm;29409;49.306;8.500;2022-08-01T09:18:02;43.16;37.12;58.45;;
43787;Laerm;29409;49.306;8.500;2022-08-01T09:19:48;43.93;37.70;56.78;;
43787;Laerm;29409;49.306;8.500;2022-08-01T09:21:28;44.44;35.04;61.88;;
43787;Laerm;29409;49.306;8.500;2022-08-01T09:23:08;41.10;35.36;54.06;;